createdAt,value
2023-02-23T00:00:21.307Z,81.85
2023-02-23T00:02:50.810Z,80.53
2023-02-23T00:05:17.523Z,83.70
2023-02-23T00:07:45.175Z,77.93
2023-02-23T00:10:12.810Z,82.93
2023-02-23T00:12:39.793Z,81.88
2023-02-23T00:15:07.672Z,89.78
2023-02-23T00:20:08.215Z,79.22
2023-02-23T00:22:34.745Z,81.72
2023-02-23T00:25:01.953Z,74.35
2023-02-23T00:27:29.582Z,81.65
2023-02-23T00:29:57.137Z,82.10
2023-02-23T00:32:24.058Z,76.82
2023-02-23T00:34:51.339Z,77.85
2023-02-23T00:37:18.737Z,77.85
2023-02-23T00:39:48.029Z,81.95
2023-02-23T00:42:14.587Z,80.82
2023-02-23T00:44:41.363Z,81.10
2023-02-23T00:47:09.282Z,79.90
2023-02-23T00:49:35.864Z,78.03
2023-02-23T00:52:02.398Z,80.00
2023-02-23T00:54:29.028Z,71.35
2023-02-23T00:56:55.554Z,71.47
2023-02-23T00:59:22.693Z,75.45
2023-02-23T01:01:49.286Z,71.50
2023-02-23T01:04:19.733Z,77.05
2023-02-23T01:06:47.179Z,72.53
2023-02-23T01:09:16.042Z,81.20
2023-02-23T01:11:42.734Z,73.35
2023-02-23T01:14:10.321Z,79.70
2023-02-23T01:16:38.877Z,76.03
2023-02-23T01:19:06.194Z,75.40
2023-02-23T01:21:33.925Z,80.47
2023-02-23T01:24:00.547Z,76.35
2023-02-23T01:26:28.870Z,77.32
2023-02-23T01:28:56.615Z,76.60
2023-02-23T01:31:24.786Z,80.00
2023-02-23T01:33:55.070Z,76.82
2023-02-23T01:36:23.094Z,79.13
2023-02-23T01:38:49.818Z,75.05
2023-02-23T01:41:17.225Z,78.50
2023-02-23T01:43:55.770Z,72.40
2023-02-23T01:46:22.371Z,79.78
2023-02-23T01:48:49.124Z,72.30
2023-02-23T01:53:50.092Z,62.55
2023-02-23T01:56:21.488Z,73.72
2023-02-23T01:58:52.062Z,64.80
2023-02-23T02:01:19.402Z,63.45
2023-02-23T02:03:49.598Z,61.42
2023-02-23T02:06:18.325Z,69.80
2023-02-23T02:08:47.502Z,68.03
2023-02-23T02:11:30.942Z,66.68
2023-02-23T02:13:59.083Z,65.30
2023-02-23T02:16:44.960Z,68.60
2023-02-23T02:19:18.731Z,72.15
2023-02-23T02:21:48.276Z,72.40
2023-02-23T02:24:33.408Z,69.47
2023-02-23T02:27:22.941Z,73.50
2023-02-23T02:29:50.798Z,75.70
2023-02-23T02:32:33.249Z,78.13
2023-02-23T02:35:02.839Z,79.32
2023-02-23T02:37:35.342Z,72.00
2023-02-23T02:40:16.864Z,78.38
2023-02-23T02:42:59.847Z,73.47
2023-02-23T02:45:30.884Z,76.97
2023-02-23T02:48:06.487Z,75.35
2023-02-23T02:50:50.200Z,74.63
2023-02-23T02:53:20.986Z,75.47
2023-02-23T02:55:48.260Z,77.70
2023-02-23T02:58:15.131Z,78.88
2023-02-23T03:01:01.523Z,74.60
2023-02-23T03:03:57.665Z,70.47
2023-02-23T03:06:54.544Z,79.93
2023-02-23T03:09:39.737Z,71.35
2023-02-23T03:12:26.577Z,78.25
2023-02-23T03:15:22.415Z,83.78
2023-02-23T03:18:12.815Z,73.47
2023-02-23T03:21:18.460Z,77.13
2023-02-23T03:24:03.797Z,77.95
2023-02-23T03:26:53.250Z,82.38
2023-02-23T03:29:50.523Z,81.47
2023-02-23T03:32:41.170Z,78.97
2023-02-23T03:35:27.809Z,84.50
2023-02-23T03:38:23.254Z,81.57
2023-02-23T03:41:09.560Z,82.55
2023-02-23T03:43:58.031Z,75.60
2023-02-23T03:46:43.814Z,78.20
2023-02-23T03:49:30.212Z,75.18
2023-02-23T03:52:18.321Z,72.30
2023-02-23T03:55:17.182Z,76.75
2023-02-23T03:58:04.361Z,70.13
2023-02-23T04:00:51.709Z,66.90
2023-02-23T04:03:37.374Z,72.43
2023-02-23T04:06:25.136Z,70.20
2023-02-23T04:09:10.704Z,66.25
2023-02-23T04:12:09.116Z,71.13
2023-02-23T04:14:56.585Z,73.55
2023-02-23T04:17:28.276Z,70.28
2023-02-23T04:19:55.467Z,71.43
2023-02-23T04:22:23.486Z,77.75
2023-02-23T04:24:50.663Z,82.33
2023-02-23T04:27:17.312Z,75.28
2023-02-23T04:29:45.004Z,69.95
2023-02-23T04:32:13.344Z,74.57
2023-02-23T04:34:40.253Z,73.57
2023-02-23T04:37:06.926Z,76.38
2023-02-23T04:39:33.427Z,77.10
2023-02-23T04:41:59.960Z,69.43
2023-02-23T04:44:26.855Z,76.65
2023-02-23T04:46:53.404Z,79.10
2023-02-23T04:49:19.932Z,79.75
2023-02-23T04:51:46.463Z,75.53
2023-02-23T04:54:13.062Z,85.82
2023-02-23T04:56:39.628Z,79.70
2023-02-23T04:59:06.189Z,78.38
2023-02-23T05:01:33.013Z,81.18
2023-02-23T05:04:00.406Z,78.45
2023-02-23T05:06:26.946Z,81.82
2023-02-23T05:08:53.465Z,85.13
2023-02-23T05:11:20.250Z,85.35
2023-02-23T05:13:46.971Z,90.97
2023-02-23T05:16:13.664Z,86.95
2023-02-23T05:18:40.228Z,89.43
2023-02-23T05:21:08.376Z,84.82
2023-02-23T05:23:35.731Z,96.70
2023-02-23T05:26:04.266Z,87.25
2023-02-23T05:28:30.921Z,88.80
2023-02-23T05:30:57.497Z,93.63
2023-02-23T05:33:24.238Z,90.38
2023-02-23T05:35:50.744Z,89.05
2023-02-23T05:38:17.310Z,93.63
2023-02-23T05:40:43.834Z,91.18
2023-02-23T05:43:10.622Z,91.90
2023-02-23T05:45:40.267Z,89.40
2023-02-23T05:48:07.194Z,91.55
2023-02-23T05:50:33.941Z,94.05
2023-02-23T05:53:00.510Z,97.43
2023-02-23T05:55:27.316Z,89.10
2023-02-23T05:57:54.000Z,94.85
2023-02-23T06:00:20.728Z,83.07
2023-02-23T06:02:47.709Z,87.70
2023-02-23T06:05:15.649Z,90.73
2023-02-23T06:10:08.949Z,83.82
2023-02-23T06:12:35.556Z,84.65
2023-02-23T06:15:02.194Z,90.32
2023-02-23T06:17:28.813Z,86.95
2023-02-23T06:19:55.395Z,90.60
2023-02-23T06:22:21.941Z,91.45
2023-02-23T06:24:49.647Z,85.20
2023-02-23T06:27:16.211Z,96.38
2023-02-23T06:29:43.278Z,84.72
2023-02-23T06:32:09.923Z,90.87
2023-02-23T06:34:36.588Z,90.85
2023-02-23T06:37:03.186Z,82.95
2023-02-23T06:39:29.810Z,92.07
2023-02-23T06:41:56.342Z,95.20
2023-02-23T06:44:23.391Z,100.90
2023-02-23T06:46:49.959Z,107.93
2023-02-23T06:49:16.763Z,101.05
2023-02-23T06:51:43.341Z,110.57
2023-02-23T06:54:09.895Z,110.57
2023-02-23T06:56:36.379Z,108.97
2023-02-23T06:59:02.954Z,93.75
2023-02-23T07:01:30.174Z,92.03
2023-02-23T07:03:56.937Z,92.28
2023-02-23T07:06:23.493Z,91.47
2023-02-23T07:08:50.008Z,98.75
2023-02-23T07:11:17.441Z,92.82
2023-02-23T07:13:44.215Z,102.55
2023-02-23T07:16:11.163Z,93.20
2023-02-23T07:18:37.733Z,92.77
2023-02-23T07:21:04.434Z,83.82
2023-02-23T07:23:31.026Z,83.60
2023-02-23T07:25:58.121Z,95.78
2023-02-23T07:28:25.829Z,98.50
2023-02-23T07:30:55.056Z,95.97
2023-02-23T07:33:21.606Z,114.85
2023-02-23T07:35:49.594Z,149.25
2023-02-23T07:38:16.188Z,178.15
2023-02-23T07:40:42.723Z,184.80
2023-02-23T07:43:09.407Z,149.00
2023-02-23T07:45:36.103Z,126.35
2023-02-23T07:48:02.699Z,151.30
2023-02-23T07:50:29.335Z,104.63
2023-02-23T07:52:55.993Z,104.95
2023-02-23T07:55:22.555Z,121.88
2023-02-23T07:57:49.168Z,134.98
2023-02-23T08:00:15.889Z,114.90
2023-02-23T08:02:42.695Z,93.63
2023-02-23T08:05:10.609Z,95.63
2023-02-23T08:07:37.318Z,88.43
2023-02-23T08:10:04.024Z,92.28
2023-02-23T08:12:32.861Z,89.55
2023-02-23T08:14:59.425Z,86.28
2023-02-23T08:17:26.089Z,93.60
2023-02-23T08:19:52.600Z,104.00
2023-02-23T08:22:19.139Z,131.60
2023-02-23T08:24:45.695Z,96.63
2023-02-23T08:27:13.059Z,92.57
2023-02-23T08:29:39.850Z,87.30
2023-02-23T08:32:06.600Z,86.18
2023-02-23T08:34:36.778Z,95.30
2023-02-23T08:37:03.326Z,88.28
2023-02-23T08:39:30.010Z,91.85
2023-02-23T08:41:56.661Z,79.80
2023-02-23T08:44:23.282Z,77.38
2023-02-23T08:46:49.901Z,79.75
2023-02-23T08:49:16.493Z,65.97
2023-02-23T08:51:43.058Z,73.45
2023-02-23T08:54:14.327Z,71.60
2023-02-23T08:56:41.039Z,81.65
2023-02-23T08:59:07.856Z,70.25
2023-02-23T09:01:34.421Z,78.78
2023-02-23T09:04:01.071Z,75.30
2023-02-23T09:06:27.681Z,80.75
2023-02-23T09:08:55.322Z,76.85
2023-02-23T09:11:22.465Z,83.00
2023-02-23T09:13:49.220Z,77.10
2023-02-23T09:16:16.204Z,80.88
2023-02-23T09:18:42.885Z,77.18
2023-02-23T09:21:18.767Z,85.15
2023-02-23T09:23:48.198Z,95.22
2023-02-23T09:26:14.898Z,87.55
2023-02-23T09:28:41.540Z,167.55
2023-02-23T09:31:09.091Z,154.15
2023-02-23T09:33:35.918Z,124.78
2023-02-23T09:36:06.596Z,114.38
2023-02-23T09:38:33.234Z,106.07
2023-02-23T09:40:59.784Z,97.22
2023-02-23T09:43:31.992Z,96.45
2023-02-23T09:46:07.315Z,106.18
2023-02-23T09:48:34.230Z,74.85
2023-02-23T09:51:01.040Z,85.95
2023-02-23T09:53:31.623Z,84.30
2023-02-23T09:56:00.977Z,71.13
2023-02-23T09:58:28.556Z,69.22
2023-02-23T10:01:01.217Z,72.38
2023-02-23T10:03:31.698Z,62.58
2023-02-23T10:06:01.290Z,64.97
2023-02-23T10:08:40.098Z,65.53
2023-02-23T10:11:18.407Z,57.25
2023-02-23T10:13:58.660Z,55.55
2023-02-23T10:16:49.825Z,66.22
2023-02-23T10:19:30.265Z,72.78
2023-02-23T10:21:59.005Z,72.32
2023-02-23T10:24:29.035Z,74.68
2023-02-23T10:27:00.681Z,72.72
2023-02-23T10:29:30.430Z,75.30
2023-02-23T10:32:02.476Z,74.07
2023-02-23T10:34:29.965Z,76.82
2023-02-23T10:37:01.738Z,76.72
2023-02-23T10:39:29.862Z,74.57
2023-02-23T10:42:16.777Z,74.97
2023-02-23T10:44:44.496Z,74.30
2023-02-23T10:47:15.655Z,80.18
2023-02-23T10:49:47.573Z,104.80
2023-02-23T10:52:24.120Z,86.97
2023-02-23T10:54:51.896Z,104.70
2023-02-23T10:57:23.472Z,78.50
2023-02-23T11:00:06.196Z,77.72
2023-02-23T11:02:33.837Z,69.05
2023-02-23T11:05:01.110Z,74.40
2023-02-23T11:07:29.620Z,63.58
2023-02-23T11:09:57.092Z,61.22
2023-02-23T11:12:24.235Z,61.60
2023-02-23T11:14:52.187Z,59.47
2023-02-23T11:19:46.428Z,56.03
2023-02-23T11:22:23.281Z,54.08
2023-02-23T11:24:50.088Z,55.97
2023-02-23T11:27:23.042Z,57.25
2023-02-23T11:29:50.999Z,46.28
2023-02-23T11:34:48.305Z,54.13
2023-02-23T11:37:17.582Z,44.97
2023-02-23T11:39:52.850Z,46.83
2023-02-23T11:42:20.777Z,49.90
2023-02-23T11:47:19.192Z,43.92
2023-02-23T11:49:47.301Z,48.63
2023-02-23T11:52:18.542Z,47.60
2023-02-23T11:54:51.279Z,47.75
2023-02-23T11:57:36.426Z,45.67
2023-02-23T12:00:09.771Z,45.15
2023-02-23T12:02:53.797Z,41.10
2023-02-23T12:05:25.617Z,47.53
2023-02-23T12:07:52.190Z,56.92
2023-02-23T12:10:24.795Z,47.58
2023-02-23T12:13:04.487Z,49.95
2023-02-23T12:15:40.207Z,44.05
2023-02-23T12:18:11.773Z,61.38
2023-02-23T12:20:41.244Z,46.85
2023-02-23T12:23:10.256Z,46.10
2023-02-23T12:25:40.729Z,47.08
2023-02-23T12:28:28.009Z,95.78
2023-02-23T12:31:02.945Z,48.55
2023-02-23T12:33:39.358Z,47.22
2023-02-23T12:36:14.834Z,45.28
2023-02-23T12:38:57.909Z,47.60
2023-02-23T12:41:40.493Z,41.35
2023-02-23T12:44:17.395Z,47.00
2023-02-23T12:46:49.016Z,49.90
2023-02-23T12:49:17.054Z,44.53
2023-02-23T12:54:12.085Z,41.28
2023-02-23T12:56:45.728Z,40.40
2023-02-23T12:59:18.388Z,40.67
2023-02-23T13:02:01.748Z,46.67
2023-02-23T13:04:43.805Z,42.38
2023-02-23T13:07:19.421Z,48.47
2023-02-23T13:10:01.093Z,47.08
2023-02-23T13:12:36.855Z,47.97
2023-02-23T13:15:03.450Z,46.80
2023-02-23T13:17:30.164Z,44.53
2023-02-23T13:19:58.898Z,41.28
2023-02-23T13:22:33.648Z,48.88
2023-02-23T13:25:04.876Z,46.90
2023-02-23T13:27:37.028Z,44.05
2023-02-23T13:30:04.685Z,44.25
2023-02-23T13:32:33.929Z,44.55
2023-02-23T13:35:01.696Z,42.22
2023-02-23T13:37:35.054Z,43.95
2023-02-23T13:40:19.755Z,38.58
2023-02-23T13:42:53.453Z,33.10
2023-02-23T13:45:24.273Z,33.28
2023-02-23T13:47:56.780Z,39.95
2023-02-23T13:50:49.442Z,32.63
2023-02-23T13:53:28.292Z,30.27
2023-02-23T13:55:58.391Z,28.73
2023-02-23T13:58:29.857Z,26.08
2023-02-23T14:01:08.301Z,22.17
2023-02-23T14:03:39.867Z,45.38
2023-02-23T14:06:07.823Z,19.85
2023-02-23T14:11:01.736Z,62.22
2023-02-23T14:13:32.726Z,24.37
2023-02-23T14:16:09.721Z,26.35
2023-02-23T14:18:49.646Z,38.17
2023-02-23T14:21:22.089Z,28.98
2023-02-23T14:23:48.765Z,15.50
2023-02-23T14:26:35.546Z,30.88
2023-02-23T14:29:17.585Z,19.13
2023-02-23T14:31:54.355Z,16.85
2023-02-23T14:34:24.458Z,13.83
2023-02-23T14:36:55.700Z,14.13
2023-02-23T14:39:26.526Z,13.68
2023-02-23T14:41:57.768Z,15.30
2023-02-23T14:44:30.795Z,15.80
2023-02-23T14:47:02.934Z,13.68
2023-02-23T14:49:32.575Z,13.80
2023-02-23T14:52:04.506Z,11.55
2023-02-23T14:54:32.676Z,12.95
2023-02-23T14:57:00.862Z,17.05
2023-02-23T14:59:36.977Z,13.50
2023-02-23T15:02:08.316Z,11.77
2023-02-23T15:04:38.633Z,10.73
2023-02-23T15:07:06.583Z,8.90
2023-02-23T15:09:42.909Z,9.43
2023-02-23T15:12:20.197Z,7.93
2023-02-23T15:14:49.897Z,10.45
2023-02-23T15:17:18.231Z,8.07
2023-02-23T15:19:45.294Z,9.00
2023-02-23T15:22:17.341Z,8.73
2023-02-23T15:24:44.711Z,7.88
2023-02-23T15:27:22.733Z,11.40
2023-02-23T15:29:49.479Z,8.57
2023-02-23T15:32:19.346Z,10.93
2023-02-23T15:34:46.072Z,8.13
2023-02-23T15:37:20.038Z,8.50
2023-02-23T15:39:56.929Z,9.35
2023-02-23T15:42:31.263Z,12.10
2023-02-23T15:44:59.446Z,8.95
2023-02-23T15:47:28.625Z,10.43
2023-02-23T15:50:37.020Z,11.90
2023-02-23T15:53:13.434Z,8.73
2023-02-23T15:55:42.177Z,11.55
2023-02-23T15:58:21.861Z,27.58
2023-02-23T16:00:55.401Z,13.05
2023-02-23T16:03:23.703Z,17.63
2023-02-23T16:06:16.706Z,7.57
2023-02-23T16:08:55.664Z,17.67
2023-02-23T16:11:22.784Z,14.05
2023-02-23T16:13:51.437Z,12.20
2023-02-23T16:16:25.470Z,10.40
2023-02-23T16:18:53.846Z,13.07
2023-02-23T16:21:22.781Z,11.05
2023-02-23T16:23:53.722Z,13.90
2023-02-23T16:26:24.275Z,16.73
2023-02-23T16:28:55.090Z,16.23
2023-02-23T16:31:27.077Z,8.55
2023-02-23T16:33:54.557Z,8.80
2023-02-23T16:36:23.630Z,11.95
2023-02-23T16:39:04.388Z,8.75
2023-02-23T16:41:31.994Z,10.20
2023-02-23T16:44:02.217Z,10.43
2023-02-23T16:46:30.989Z,10.27
2023-02-23T16:48:59.487Z,10.15
2023-02-23T16:51:27.270Z,9.68
2023-02-23T16:53:53.965Z,14.55
2023-02-23T16:56:22.189Z,12.50
2023-02-23T16:58:55.966Z,15.93
2023-02-23T17:01:23.171Z,19.63
2023-02-23T17:03:53.277Z,15.95
2023-02-23T17:06:21.236Z,11.73
2023-02-23T17:11:24.448Z,18.58
2023-02-23T17:13:51.064Z,19.27
2023-02-23T17:16:17.902Z,27.58
2023-02-23T17:18:45.020Z,30.40
2023-02-23T17:21:12.720Z,40.58
2023-02-23T17:23:48.405Z,32.83
2023-02-23T17:26:15.322Z,17.00
2023-02-23T17:28:41.934Z,89.50
2023-02-23T17:31:08.839Z,226.60
2023-02-23T17:33:37.154Z,62.47
2023-02-23T17:36:06.006Z,34.28
2023-02-23T17:38:35.325Z,22.77
2023-02-23T17:41:02.900Z,18.17
2023-02-23T17:43:29.560Z,16.88
2023-02-23T17:45:56.337Z,17.10
2023-02-23T17:48:23.378Z,19.63
2023-02-23T17:50:58.511Z,14.13
2023-02-23T17:53:25.566Z,18.58
2023-02-23T17:55:52.671Z,16.30
2023-02-23T17:58:19.390Z,21.83
2023-02-23T18:00:46.355Z,22.67
2023-02-23T18:03:13.042Z,20.48
2023-02-23T18:05:39.846Z,17.70
2023-02-23T18:08:06.647Z,14.60
2023-02-23T18:10:37.703Z,17.02
2023-02-23T18:13:04.868Z,17.90
2023-02-23T18:15:33.350Z,20.25
2023-02-23T18:18:01.342Z,19.73
2023-02-23T18:20:28.653Z,20.73
2023-02-23T18:22:55.976Z,23.08
2023-02-23T18:25:24.830Z,28.73
2023-02-23T18:27:54.032Z,41.95
2023-02-23T18:30:22.376Z,28.60
2023-02-23T18:32:49.461Z,27.27
2023-02-23T18:35:16.125Z,23.90
2023-02-23T18:37:42.753Z,20.77
2023-02-23T18:40:12.146Z,29.20
2023-02-23T18:42:38.672Z,30.20
2023-02-23T18:45:05.554Z,26.00
2023-02-23T18:47:32.245Z,52.47
2023-02-23T18:49:58.945Z,46.92
2023-02-23T18:52:27.263Z,29.30
2023-02-23T18:54:53.972Z,42.92
2023-02-23T18:57:20.519Z,20.42
2023-02-23T18:59:47.658Z,24.70
2023-02-23T19:02:14.210Z,26.00
2023-02-23T19:04:40.789Z,25.75
2023-02-23T19:07:07.404Z,28.05
2023-02-23T19:09:34.360Z,27.45
2023-02-23T19:12:00.923Z,24.75
2023-02-23T19:14:47.874Z,24.88
2023-02-23T19:17:14.085Z,24.67
2023-02-23T19:19:40.768Z,28.67
2023-02-23T19:22:07.325Z,24.58
2023-02-23T19:24:35.324Z,27.75
2023-02-23T19:27:03.601Z,24.13
2023-02-23T19:29:30.237Z,23.70
2023-02-23T19:31:57.002Z,23.35
2023-02-23T19:34:23.682Z,24.63
2023-02-23T19:36:50.360Z,23.30
2023-02-23T19:39:16.929Z,24.42
2023-02-23T19:41:44.601Z,23.08
2023-02-23T19:44:11.473Z,26.45
2023-02-23T19:46:39.914Z,20.95
2023-02-23T19:49:06.597Z,19.80
2023-02-23T19:51:33.175Z,30.98
2023-02-23T19:53:59.813Z,25.23
2023-02-23T19:56:27.950Z,25.70
2023-02-23T19:58:55.075Z,25.17
2023-02-23T20:01:23.079Z,27.40
2023-02-23T20:03:57.367Z,26.65
2023-02-23T20:06:24.884Z,22.77
2023-02-23T20:08:52.671Z,33.92
2023-02-23T20:11:19.948Z,31.27
2023-02-23T20:13:47.060Z,36.97
2023-02-23T20:16:14.397Z,27.48
2023-02-23T20:18:41.799Z,24.27
2023-02-23T20:21:09.734Z,26.50
2023-02-23T20:26:07.710Z,25.17
2023-02-23T20:28:34.349Z,24.20
2023-02-23T20:31:01.789Z,21.90
2023-02-23T20:33:29.263Z,25.67
2023-02-23T20:35:56.076Z,22.38
2023-02-23T20:38:22.679Z,26.00
2023-02-23T20:40:50.616Z,18.95
2023-02-23T20:45:43.756Z,20.70
2023-02-23T20:48:10.297Z,19.48
2023-02-23T20:50:37.322Z,20.50
2023-02-23T20:53:04.749Z,20.03
2023-02-23T20:55:32.047Z,21.40
2023-02-23T20:57:58.676Z,18.80
2023-02-23T21:00:43.435Z,18.13
2023-02-23T21:03:10.048Z,14.68
2023-02-23T21:05:39.247Z,16.10
2023-02-23T21:08:06.677Z,17.67
2023-02-23T21:10:34.545Z,15.13
2023-02-23T21:13:01.152Z,15.13
2023-02-23T21:15:29.120Z,16.95
2023-02-23T21:17:56.552Z,14.27
2023-02-23T21:20:23.589Z,14.57
2023-02-23T21:22:50.426Z,13.80
2023-02-23T21:25:19.439Z,14.45
2023-02-23T21:27:48.826Z,13.98
2023-02-23T21:30:16.478Z,13.25
2023-02-23T21:32:43.597Z,16.10
2023-02-23T21:35:10.928Z,19.30
2023-02-23T21:37:38.014Z,19.67
2023-02-23T21:40:08.333Z,16.13
2023-02-23T21:42:35.798Z,13.63
2023-02-23T21:45:02.366Z,12.77
2023-02-23T21:47:28.966Z,14.57
2023-02-23T21:49:55.680Z,13.55
2023-02-23T21:52:22.252Z,23.20
2023-02-23T21:54:49.970Z,16.58
2023-02-23T21:57:16.587Z,16.00
2023-02-23T21:59:43.110Z,17.15
2023-02-23T22:02:12.655Z,20.25
2023-02-23T22:04:39.886Z,17.85
2023-02-23T22:07:07.837Z,16.08
2023-02-23T22:12:00.942Z,16.73
2023-02-23T22:14:27.506Z,20.98
2023-02-23T22:16:54.112Z,15.95
2023-02-23T22:19:20.745Z,13.60
2023-02-23T22:21:48.419Z,12.52
2023-02-23T22:24:15.354Z,19.52
2023-02-23T22:26:42.984Z,23.45
2023-02-23T22:29:10.444Z,24.40
2023-02-23T22:31:37.874Z,24.98
2023-02-23T22:34:06.296Z,21.15
2023-02-23T22:36:35.720Z,16.92
2023-02-23T22:39:03.011Z,15.48
2023-02-23T22:41:29.745Z,27.10
2023-02-23T22:43:57.084Z,19.50
2023-02-23T22:46:24.033Z,26.58
2023-02-23T22:48:50.654Z,17.30
2023-02-23T22:51:19.313Z,19.23
2023-02-23T22:53:46.117Z,18.70
2023-02-23T22:56:12.691Z,19.85
2023-02-23T22:58:42.074Z,16.92
2023-02-23T23:01:11.090Z,16.42
2023-02-23T23:03:39.707Z,13.25
2023-02-23T23:06:08.100Z,20.67
2023-02-23T23:08:40.191Z,27.90
2023-02-23T23:11:11.181Z,20.77
2023-02-23T23:13:45.119Z,19.30
2023-02-23T23:16:16.830Z,18.33
2023-02-23T23:18:55.675Z,20.83
2023-02-23T23:21:24.831Z,19.52
2023-02-23T23:23:52.216Z,14.68
2023-02-23T23:26:20.268Z,15.07
2023-02-23T23:31:22.888Z,18.70
2023-02-23T23:33:51.584Z,22.83
2023-02-23T23:36:19.892Z,19.00
2023-02-23T23:38:46.492Z,14.52
2023-02-23T23:41:16.452Z,19.77
2023-02-23T23:43:46.378Z,12.18
2023-02-23T23:46:22.739Z,16.38
2023-02-23T23:48:49.810Z,20.40
2023-02-23T23:51:16.486Z,129.75
2023-02-23T23:53:43.032Z,35.78
2023-02-23T23:56:10.824Z,18.23
2023-02-23T23:58:38.558Z,19.85
